Inola, OK

10:20 PM CST on January 31, 2015 (GMT -0600)
Rural Near Claremore Lake | Change Station
CLOSE
Current Station
Personal Weather Station
Location: Claremore, OK
Elevation: 650 ft
Nearby Weather Stations

Elev 650 ft 36.34 °N, 95.58 °W | Updated 1 minute ago

Rain
Rain
41.2 °F
Feels Like 41 °F
N
1.1
Wind Variable Wind from South

Today
High -- | Low -- °F
--% Chance of Precip.
Yesterday
High -- | Low -- °F
Precip. -- in
7:23 AM 5:47 PM
Waxing Gibbous, 93% visible
Pressure 29.94 in
Visibility 7.0 miles
Clouds Scattered Clouds 800 ft
Mostly Cloudy 2300 ft
Windchill 41 °F
Dew Point 40 °F
Humidity 94%
Rainfall 0.22 in
Snow Depth Not available.
UV 0 out of 12
Pollen 1.50 out of 12
Air Quality Not available.
Flu Activity Not available.
METAR KGCM 010415Z AUTO 17010KT 7SM RA SCT008 BKN023 05/03 A2994 RMK AO2 P0001

More Conditions Fewer Conditions

Pressure 29.94 in
Visibility 7.0 miles
Clouds Scattered Clouds 800 ft
Mostly Cloudy 2300 ft
Windchill 41 °F
Dew Point 40 °F
Humidity 94%
Rainfall 0.22 in
Snow Depth Not available.
UV 0 out of 12
Pollen 1.50 out of 12
Air Quality Not available.
Flu Activity Not available.
METAR KGCM 010415Z AUTO 17010KT 7SM RA SCT008 BKN023 05/03 A2994 RMK AO2 P0001

More Conditions Fewer Conditions

Nowcast | as of 9:25 PM CST on January 31, 2015

At 9:25 PM...National Weather Service Doppler radars continued to detect a large area of light rain or drizzle affecting much of the forecast area. Precipitation amounts had remained very light...with around a hundredth or two per hour. All this activity was moving toward the northeast...around 35 miles per hour. Through 11:00 PM...light rain or drizzle will persist across much of eastern Oklahoma and northwest Arkansas. Precipitation amounts are expected to remain light...with between a trace to a few hundredths of an inch per hour. Temperatures will remain above freezing...so no frozen precipitation is expected.

×

10-Day Weather Forecast

Almanac

Astronomy

Jan. 31, 2015 Rise Set
Actual Time
Civil Twilight
Nautical Twilight
Astronomical Twilight
Moon
Length of Visible Light
Length of Day
Tomorrow will be .
, % of the Moon is Illuminated

Today's Extremes

State Highs State Lows

Community

WunderPhotos

Upload Photos

1,792,308 photos uploaded!

WunderBlogs® & News

Nearby

Air Quality

  Air Quality AQ Index Pollutant
Not available.

Snow Depth

Station Depth Elevation

Earthquake Activity

City Distance Mag. Time & Date
Minimum magnitude displayed is 2.5.

Coastal Water Temperatures

Place Temperature

Nearby Weather Stations